createdAt,value
2023-08-22T00:00:33.743Z,99.90
2023-08-22T00:03:01.469Z,99.90
2023-08-22T00:05:29.024Z,99.90
2023-08-22T00:07:55.874Z,99.90
2023-08-22T00:10:22.726Z,99.90
2023-08-22T00:12:49.613Z,99.90
2023-08-22T00:15:16.884Z,99.90
2023-08-22T00:17:45.030Z,99.90
2023-08-22T00:20:16.325Z,99.90
2023-08-22T00:22:43.436Z,99.90
2023-08-22T00:25:11.872Z,99.90
2023-08-22T00:27:39.762Z,99.90
2023-08-22T00:30:08.039Z,99.90
2023-08-22T00:32:35.375Z,99.90
2023-08-22T00:35:02.410Z,99.90
2023-08-22T00:37:29.663Z,99.90
2023-08-22T00:39:56.706Z,99.90
2023-08-22T00:42:23.541Z,99.90
2023-08-22T00:44:50.532Z,99.90
2023-08-22T00:47:19.303Z,99.90
2023-08-22T00:49:46.261Z,99.90
2023-08-22T00:52:13.952Z,99.90
2023-08-22T00:54:42.420Z,99.90
2023-08-22T00:57:10.121Z,99.90
2023-08-22T00:59:39.119Z,99.90
2023-08-22T01:02:08.384Z,99.90
2023-08-22T01:04:35.505Z,99.90
2023-08-22T01:07:19.737Z,99.90
2023-08-22T01:09:52.683Z,99.90
2023-08-22T01:12:31.562Z,99.90
2023-08-22T01:15:10.661Z,99.90
2023-08-22T01:17:39.050Z,99.90
2023-08-22T01:20:10.065Z,99.90
2023-08-22T01:22:37.090Z,99.90
2023-08-22T01:25:06.653Z,99.90
2023-08-22T01:27:49.921Z,99.90
2023-08-22T01:30:30.326Z,99.90
2023-08-22T01:33:05.645Z,99.90
2023-08-22T01:35:34.819Z,99.90
2023-08-22T01:38:02.421Z,99.90
2023-08-22T01:40:30.337Z,99.90
2023-08-22T01:42:57.437Z,99.90
2023-08-22T01:45:24.372Z,99.90
2023-08-22T01:47:51.318Z,99.90
2023-08-22T01:50:18.279Z,99.90
2023-08-22T01:52:45.056Z,99.90
2023-08-22T01:55:13.254Z,99.90
2023-08-22T01:57:40.120Z,99.90
2023-08-22T02:00:08.476Z,99.90
2023-08-22T02:02:39.350Z,99.90
2023-08-22T02:05:06.556Z,99.90
2023-08-22T02:07:36.586Z,99.90
2023-08-22T02:10:05.229Z,99.90
2023-08-22T02:12:33.084Z,99.90
2023-08-22T02:15:01.040Z,99.90
2023-08-22T02:17:27.947Z,99.90
2023-08-22T02:19:54.804Z,99.90
2023-08-22T02:22:21.762Z,99.90
2023-08-22T02:24:48.534Z,99.90
2023-08-22T02:27:15.598Z,99.90
2023-08-22T02:29:44.627Z,99.90
2023-08-22T02:32:11.422Z,99.90
2023-08-22T02:34:39.344Z,99.90
2023-08-22T02:37:08.518Z,99.90
2023-08-22T02:39:35.383Z,99.90
2023-08-22T02:42:02.637Z,99.90
2023-08-22T02:44:29.621Z,99.90
2023-08-22T02:46:56.436Z,99.90
2023-08-22T02:49:23.229Z,99.90
2023-08-22T02:51:50.042Z,99.90
2023-08-22T02:54:16.814Z,99.90
2023-08-22T02:56:43.555Z,99.90
2023-08-22T02:59:11.064Z,99.90
2023-08-22T03:01:39.957Z,99.90
2023-08-22T03:04:06.842Z,99.90
2023-08-22T03:06:34.048Z,99.90
2023-08-22T03:09:00.879Z,99.90
2023-08-22T03:11:28.908Z,99.90
2023-08-22T03:13:57.945Z,99.90
2023-08-22T03:16:24.924Z,99.90
2023-08-22T03:18:54.212Z,99.90
2023-08-22T03:21:21.580Z,99.90
2023-08-22T03:23:48.455Z,99.90
2023-08-22T03:26:16.926Z,99.90
2023-08-22T03:28:43.859Z,99.90
2023-08-22T03:31:11.137Z,99.90
2023-08-22T03:33:38.296Z,99.90
2023-08-22T03:36:08.595Z,99.90
2023-08-22T03:38:35.746Z,99.90
2023-08-22T03:41:03.869Z,99.90
2023-08-22T03:43:30.642Z,99.90
2023-08-22T03:45:57.928Z,99.90
2023-08-22T03:48:25.012Z,99.90
2023-08-22T03:50:53.523Z,99.90
2023-08-22T03:53:20.396Z,99.90
2023-08-22T03:55:47.346Z,99.90
2023-08-22T03:58:14.788Z,99.90
2023-08-22T04:00:41.717Z,99.90
2023-08-22T04:03:08.699Z,99.90
2023-08-22T04:05:35.630Z,99.90
2023-08-22T04:08:02.546Z,99.90
2023-08-22T04:10:29.300Z,99.90
2023-08-22T04:12:56.141Z,99.90
2023-08-22T04:15:23.040Z,99.90
2023-08-22T04:17:51.630Z,99.90
2023-08-22T04:20:18.807Z,99.90
2023-08-22T04:22:45.641Z,99.90
2023-08-22T04:25:13.595Z,99.90
2023-08-22T04:27:41.684Z,99.90
2023-08-22T04:30:10.688Z,99.90
2023-08-22T04:32:38.178Z,99.90
2023-08-22T04:35:07.043Z,99.90
2023-08-22T04:37:37.825Z,99.90
2023-08-22T04:40:05.548Z,99.90
2023-08-22T04:42:46.734Z,99.90
2023-08-22T04:45:15.167Z,99.90
2023-08-22T04:47:42.703Z,99.90
2023-08-22T04:50:10.596Z,99.90
2023-08-22T04:52:37.462Z,99.90
2023-08-22T04:55:06.217Z,99.90
2023-08-22T04:57:34.158Z,99.90
2023-08-22T05:00:01.441Z,99.90
2023-08-22T05:02:29.661Z,99.90
2023-08-22T05:04:57.109Z,99.90
2023-08-22T05:07:24.312Z,99.90
2023-08-22T05:09:51.151Z,99.90
2023-08-22T05:12:18.046Z,99.90
2023-08-22T05:14:45.082Z,99.90
2023-08-22T05:17:12.108Z,99.90
2023-08-22T05:19:41.060Z,99.90
2023-08-22T05:22:09.337Z,99.90
2023-08-22T05:24:36.126Z,99.90
2023-08-22T05:27:03.449Z,99.90
2023-08-22T05:29:30.278Z,99.90
2023-08-22T05:31:57.055Z,99.90
2023-08-22T05:34:24.116Z,99.90
2023-08-22T05:36:51.060Z,99.90
2023-08-22T05:39:20.280Z,99.90
2023-08-22T05:41:47.140Z,99.90
2023-08-22T05:44:14.627Z,99.90
2023-08-22T05:46:41.819Z,99.90
2023-08-22T05:49:11.017Z,99.90
2023-08-22T05:51:38.931Z,99.90
2023-08-22T05:54:05.952Z,99.90
2023-08-22T05:56:33.287Z,99.90
2023-08-22T05:59:00.674Z,99.90
2023-08-22T06:01:27.523Z,99.90
2023-08-22T06:03:54.458Z,99.90
2023-08-22T06:06:21.425Z,99.90
2023-08-22T06:08:49.964Z,99.90
2023-08-22T06:11:17.600Z,99.90
2023-08-22T06:13:44.631Z,99.90
2023-08-22T06:16:12.284Z,99.90
2023-08-22T06:18:40.371Z,99.90
2023-08-22T06:21:07.262Z,99.90
2023-08-22T06:23:34.164Z,99.90
2023-08-22T06:26:01.419Z,99.90
2023-08-22T06:28:28.272Z,99.90
2023-08-22T06:30:55.535Z,99.90
2023-08-22T06:33:22.561Z,99.90
2023-08-22T06:35:49.616Z,99.90
2023-08-22T06:38:17.018Z,99.90
2023-08-22T06:40:43.888Z,99.90
2023-08-22T06:43:10.644Z,99.90
2023-08-22T06:45:38.556Z,99.90
2023-08-22T06:48:06.011Z,99.90
2023-08-22T06:50:32.877Z,99.90
2023-08-22T06:53:00.911Z,99.90
2023-08-22T06:55:27.698Z,99.90
2023-08-22T06:57:54.536Z,99.90
2023-08-22T07:00:22.575Z,99.90
2023-08-22T07:02:49.755Z,99.90
2023-08-22T07:05:17.305Z,99.90
2023-08-22T07:07:44.426Z,99.90
2023-08-22T07:10:15.359Z,99.90
2023-08-22T07:12:44.438Z,99.90
2023-08-22T07:15:11.821Z,99.90
2023-08-22T07:17:39.686Z,99.90
2023-08-22T07:20:09.223Z,99.90
2023-08-22T07:22:36.109Z,99.90
2023-08-22T07:25:03.014Z,99.90
2023-08-22T07:27:29.949Z,99.90
2023-08-22T07:29:56.939Z,99.90
2023-08-22T07:32:23.998Z,99.90
2023-08-22T07:34:50.759Z,99.90
2023-08-22T07:37:18.112Z,99.90
2023-08-22T07:39:45.391Z,99.90
2023-08-22T07:42:12.320Z,99.90
2023-08-22T07:44:39.271Z,99.90
2023-08-22T07:47:06.461Z,99.90
2023-08-22T07:49:33.500Z,99.90
2023-08-22T07:52:00.541Z,99.90
2023-08-22T07:54:27.698Z,99.90
2023-08-22T07:57:04.806Z,99.90
2023-08-22T07:59:35.415Z,99.90
2023-08-22T08:02:02.518Z,99.90
2023-08-22T08:04:29.482Z,99.90
2023-08-22T08:06:56.383Z,99.90
2023-08-22T08:09:33.407Z,99.90
2023-08-22T08:12:02.698Z,99.90
2023-08-22T08:14:29.625Z,99.90
2023-08-22T08:16:56.437Z,99.90
2023-08-22T08:19:25.887Z,99.90
2023-08-22T08:21:54.251Z,99.90
2023-08-22T08:24:21.093Z,99.90
2023-08-22T08:26:50.935Z,99.90
2023-08-22T08:29:19.334Z,99.90
2023-08-22T08:31:48.577Z,99.90
2023-08-22T08:34:15.632Z,99.90
2023-08-22T08:36:42.567Z,99.90
2023-08-22T08:39:09.349Z,99.90
2023-08-22T08:41:44.024Z,99.90
2023-08-22T08:44:13.871Z,99.90
2023-08-22T08:46:40.878Z,99.90
2023-08-22T08:49:09.893Z,99.90
2023-08-22T08:51:37.592Z,99.90
2023-08-22T08:54:05.905Z,99.90
2023-08-22T08:56:32.743Z,99.90
2023-08-22T08:58:59.659Z,99.00
2023-08-22T09:01:27.751Z,98.80
2023-08-22T09:03:54.940Z,97.70
2023-08-22T09:06:21.801Z,97.00
2023-08-22T09:09:05.554Z,96.30
2023-08-22T09:11:32.681Z,96.60
2023-08-22T09:13:59.878Z,96.20
2023-08-22T09:16:28.031Z,95.10
2023-08-22T09:19:01.436Z,95.00
2023-08-22T09:21:29.028Z,94.40
2023-08-22T09:24:10.216Z,94.70
2023-08-22T09:26:46.202Z,94.70
2023-08-22T09:29:13.038Z,93.50
2023-08-22T09:31:39.748Z,92.60
2023-08-22T09:34:12.179Z,91.90
2023-08-22T09:36:48.080Z,91.10
2023-08-22T09:39:21.860Z,90.80
2023-08-22T09:42:08.765Z,90.20
2023-08-22T09:44:36.833Z,89.20
2023-08-22T09:47:04.113Z,89.00
2023-08-22T09:49:32.080Z,88.60
2023-08-22T09:51:59.688Z,88.30
2023-08-22T09:54:27.286Z,88.50
2023-08-22T09:56:55.925Z,88.40
2023-08-22T09:59:24.038Z,87.40
2023-08-22T10:01:51.304Z,86.30
2023-08-22T10:04:19.224Z,86.00
2023-08-22T10:06:50.143Z,84.20
2023-08-22T10:09:18.783Z,83.80
2023-08-22T10:11:58.836Z,82.70
2023-08-22T10:14:37.088Z,81.50
2023-08-22T10:17:04.108Z,81.50
2023-08-22T10:19:31.698Z,80.70
2023-08-22T10:22:09.036Z,80.10
2023-08-22T10:24:36.582Z,78.90
2023-08-22T10:27:05.713Z,79.20
2023-08-22T10:29:36.589Z,77.00
2023-08-22T10:32:06.340Z,76.50
2023-08-22T10:34:56.758Z,75.90
2023-08-22T10:37:28.496Z,75.40
2023-08-22T10:40:00.094Z,73.70
2023-08-22T10:42:27.522Z,73.50
2023-08-22T10:44:57.596Z,72.40
2023-08-22T10:47:29.640Z,71.10
2023-08-22T10:50:13.004Z,70.40
2023-08-22T10:52:42.526Z,69.50
2023-08-22T10:55:13.021Z,70.00
2023-08-22T10:57:42.655Z,68.90
2023-08-22T11:00:21.297Z,68.40
2023-08-22T11:02:59.938Z,66.70
2023-08-22T11:05:31.264Z,67.70
2023-08-22T11:07:58.314Z,66.30
2023-08-22T11:10:26.188Z,66.30
2023-08-22T11:12:58.084Z,65.00
2023-08-22T11:15:25.070Z,64.70
2023-08-22T11:17:52.464Z,64.70
2023-08-22T11:20:25.950Z,63.50
2023-08-22T11:22:54.735Z,64.10
2023-08-22T11:25:26.323Z,64.00
2023-08-22T11:27:54.053Z,63.50
2023-08-22T11:30:22.277Z,63.80
2023-08-22T11:32:50.142Z,64.10
2023-08-22T11:35:17.929Z,63.40
2023-08-22T11:37:45.433Z,64.00
2023-08-22T11:40:16.069Z,64.80
2023-08-22T11:42:44.164Z,65.10
2023-08-22T11:45:26.544Z,64.60
2023-08-22T11:47:56.251Z,64.70
2023-08-22T11:50:28.787Z,64.00
2023-08-22T11:52:56.534Z,63.70
2023-08-22T11:55:27.545Z,63.50
2023-08-22T11:58:00.116Z,63.30
2023-08-22T12:00:28.495Z,63.00
2023-08-22T12:02:57.290Z,62.80
2023-08-22T12:05:38.615Z,61.40
2023-08-22T12:08:08.141Z,62.30
2023-08-22T12:10:49.938Z,62.30
2023-08-22T12:13:18.814Z,62.10
2023-08-22T12:15:45.997Z,61.60
2023-08-22T12:18:13.863Z,60.60
2023-08-22T12:20:42.654Z,60.20
2023-08-22T12:23:14.364Z,60.00
2023-08-22T12:25:43.145Z,59.40
2023-08-22T12:28:15.550Z,59.00
2023-08-22T12:30:42.488Z,59.30
2023-08-22T12:33:10.318Z,59.60
2023-08-22T12:35:45.738Z,59.40
2023-08-22T12:38:12.586Z,58.30
2023-08-22T12:40:40.893Z,58.40
2023-08-22T12:43:07.662Z,59.00
2023-08-22T12:45:35.018Z,60.40
2023-08-22T12:48:01.820Z,60.50
2023-08-22T12:50:28.803Z,59.40
2023-08-22T12:52:55.584Z,59.50
2023-08-22T12:55:22.877Z,59.60
2023-08-22T12:57:49.868Z,57.80
2023-08-22T13:00:17.118Z,57.90
2023-08-22T13:02:44.466Z,57.50
2023-08-22T13:05:14.589Z,58.30
2023-08-22T13:07:41.503Z,58.50
2023-08-22T13:10:08.603Z,58.20
2023-08-22T13:12:35.851Z,57.80
2023-08-22T13:15:04.738Z,57.50
2023-08-22T13:17:31.726Z,56.80
2023-08-22T13:19:59.819Z,55.60
2023-08-22T13:22:26.703Z,56.30
2023-08-22T13:24:53.454Z,57.20
2023-08-22T13:27:20.812Z,56.40
2023-08-22T13:29:47.614Z,58.30
2023-08-22T13:32:14.539Z,60.00
2023-08-22T13:34:41.578Z,59.90
2023-08-22T13:37:08.528Z,61.10
2023-08-22T13:39:35.540Z,61.20
2023-08-22T13:42:02.569Z,60.20
2023-08-22T13:44:29.563Z,59.00
2023-08-22T13:46:56.741Z,59.70
2023-08-22T13:49:23.590Z,60.50
2023-08-22T13:51:53.180Z,61.10
2023-08-22T13:54:22.962Z,60.50
2023-08-22T13:56:50.077Z,59.70
2023-08-22T13:59:17.121Z,58.30
2023-08-22T14:01:46.446Z,57.10
2023-08-22T14:04:13.448Z,56.80
2023-08-22T14:06:40.449Z,56.90
2023-08-22T14:09:20.022Z,56.80
2023-08-22T14:11:53.334Z,55.60
2023-08-22T14:14:20.404Z,55.40
2023-08-22T14:16:47.601Z,56.00
2023-08-22T14:19:14.732Z,55.50
2023-08-22T14:21:47.837Z,55.30
2023-08-22T14:24:16.840Z,54.40
2023-08-22T14:26:44.227Z,54.00
2023-08-22T14:29:11.051Z,54.40
2023-08-22T14:31:38.196Z,55.60
2023-08-22T14:34:05.145Z,56.50
2023-08-22T14:36:32.474Z,57.70
2023-08-22T14:38:59.313Z,58.80
2023-08-22T14:41:26.264Z,59.70
2023-08-22T14:43:54.030Z,59.10
2023-08-22T14:46:21.443Z,58.50
2023-08-22T14:48:48.323Z,58.00
2023-08-22T14:51:15.479Z,56.80
2023-08-22T14:53:42.486Z,56.50
2023-08-22T14:56:09.579Z,58.10
2023-08-22T14:58:41.530Z,57.30
2023-08-22T15:01:10.017Z,59.00
2023-08-22T15:03:37.655Z,58.50
2023-08-22T15:06:04.637Z,59.40
2023-08-22T15:08:31.855Z,59.50
2023-08-22T15:11:02.564Z,59.60
2023-08-22T15:13:30.180Z,61.50
2023-08-22T15:15:58.516Z,62.30
2023-08-22T15:18:26.724Z,64.10
2023-08-22T15:20:56.129Z,64.90
2023-08-22T15:23:24.741Z,65.90
2023-08-22T15:25:55.601Z,66.60
2023-08-22T15:28:23.592Z,67.90
2023-08-22T15:30:55.148Z,66.10
2023-08-22T15:33:22.465Z,65.20
2023-08-22T15:35:50.718Z,64.90
2023-08-22T15:38:17.877Z,64.60
2023-08-22T15:40:49.399Z,63.10
2023-08-22T15:43:20.389Z,61.90
2023-08-22T15:45:48.276Z,61.60
2023-08-22T15:48:15.770Z,61.10
2023-08-22T15:50:44.838Z,60.30
2023-08-22T15:53:14.102Z,60.90
2023-08-22T15:55:42.919Z,60.20
2023-08-22T15:58:09.989Z,60.60
2023-08-22T16:00:38.909Z,62.10
2023-08-22T16:03:06.525Z,62.90
2023-08-22T16:05:34.372Z,64.80
2023-08-22T16:08:01.732Z,65.10
2023-08-22T16:10:29.527Z,66.70
2023-08-22T16:12:56.575Z,68.50
2023-08-22T16:15:23.520Z,68.60
2023-08-22T16:17:51.201Z,69.10
2023-08-22T16:20:18.753Z,69.30
2023-08-22T16:22:48.445Z,68.90
2023-08-22T16:25:15.399Z,68.80
2023-08-22T16:27:45.246Z,68.10
2023-08-22T16:30:13.079Z,67.10
2023-08-22T16:32:40.190Z,66.10
2023-08-22T16:35:07.694Z,65.80
2023-08-22T16:37:34.617Z,65.50
2023-08-22T16:40:01.502Z,65.20
2023-08-22T16:42:28.333Z,65.40
2023-08-22T16:44:55.059Z,66.10
2023-08-22T16:47:21.958Z,66.60
2023-08-22T16:49:48.936Z,67.40
2023-08-22T16:52:15.804Z,68.50
2023-08-22T16:54:42.624Z,70.20
2023-08-22T16:57:09.678Z,71.40
2023-08-22T16:59:36.899Z,72.70
2023-08-22T17:02:04.205Z,73.60
2023-08-22T17:04:31.072Z,73.50
2023-08-22T17:06:57.941Z,73.70
2023-08-22T17:09:24.868Z,74.30
2023-08-22T17:11:51.909Z,75.10
2023-08-22T17:14:18.939Z,75.80
2023-08-22T17:16:45.804Z,76.70
2023-08-22T17:19:13.915Z,77.00
2023-08-22T17:21:40.785Z,77.50
2023-08-22T17:24:07.722Z,78.00
2023-08-22T17:26:34.628Z,78.30
2023-08-22T17:29:01.449Z,78.40
2023-08-22T17:31:29.067Z,78.70
2023-08-22T17:33:56.153Z,78.20
2023-08-22T17:36:23.111Z,78.40
2023-08-22T17:38:51.387Z,78.90
2023-08-22T17:41:18.622Z,79.80
2023-08-22T17:43:45.423Z,80.40
2023-08-22T17:46:13.990Z,81.40
2023-08-22T17:48:41.287Z,82.10
2023-08-22T17:51:08.078Z,82.70
2023-08-22T17:53:35.028Z,83.10
2023-08-22T17:56:01.886Z,83.60
2023-08-22T17:58:28.836Z,83.90
2023-08-22T18:00:55.710Z,84.40
2023-08-22T18:03:22.727Z,84.90
2023-08-22T18:06:00.840Z,85.50
2023-08-22T18:08:28.777Z,86.00
2023-08-22T18:10:56.941Z,86.40
2023-08-22T18:13:24.082Z,86.70
2023-08-22T18:16:09.009Z,87.00
2023-08-22T18:18:39.837Z,87.40
2023-08-22T18:21:12.247Z,87.80
2023-08-22T18:23:40.118Z,87.80
2023-08-22T18:26:09.290Z,88.10
2023-08-22T18:28:36.318Z,88.70
2023-08-22T18:31:09.740Z,88.90
2023-08-22T18:33:36.672Z,89.20
2023-08-22T18:36:03.697Z,89.70
2023-08-22T18:38:30.622Z,90.00
2023-08-22T18:40:58.716Z,90.30
2023-08-22T18:43:25.748Z,90.50
2023-08-22T18:45:52.847Z,90.90
2023-08-22T18:48:19.848Z,91.30
2023-08-22T18:50:56.842Z,91.70
2023-08-22T18:53:23.589Z,92.20
2023-08-22T18:55:50.351Z,92.50
2023-08-22T18:58:17.295Z,92.80
2023-08-22T19:00:44.230Z,93.10
2023-08-22T19:03:11.398Z,93.60
2023-08-22T19:05:38.280Z,94.00
2023-08-22T19:08:06.711Z,94.60
2023-08-22T19:10:33.683Z,95.00
2023-08-22T19:13:00.637Z,95.30
2023-08-22T19:15:27.554Z,95.70
2023-08-22T19:17:54.513Z,96.00
2023-08-22T19:20:22.333Z,96.50
2023-08-22T19:22:49.107Z,97.00
2023-08-22T19:25:15.894Z,97.60
2023-08-22T19:27:42.656Z,98.00
2023-08-22T19:30:09.986Z,98.40
2023-08-22T19:35:09.350Z,99.60
2023-08-22T19:37:36.576Z,99.90
2023-08-22T19:40:03.496Z,99.90
2023-08-22T19:42:30.325Z,99.90
2023-08-22T19:44:57.737Z,99.90
2023-08-22T19:47:24.999Z,99.90
2023-08-22T19:49:51.823Z,99.90
2023-08-22T19:52:18.808Z,99.90
2023-08-22T19:54:45.650Z,99.90
2023-08-22T19:57:12.565Z,99.90
2023-08-22T19:59:39.397Z,99.90
2023-08-22T20:02:06.729Z,99.90
2023-08-22T20:04:33.594Z,99.90
2023-08-22T20:07:00.455Z,99.90
2023-08-22T20:09:27.626Z,99.90
2023-08-22T20:11:54.421Z,99.90
2023-08-22T20:14:21.216Z,99.90
2023-08-22T20:16:48.266Z,99.90
2023-08-22T20:19:16.537Z,99.90
2023-08-22T20:21:43.382Z,99.90
2023-08-22T20:24:10.227Z,99.90
2023-08-22T20:26:40.420Z,99.90
2023-08-22T20:29:09.121Z,99.90
2023-08-22T20:31:37.701Z,99.90
2023-08-22T20:34:04.592Z,99.90
2023-08-22T20:36:31.384Z,99.90
2023-08-22T20:39:00.436Z,99.90
2023-08-22T20:41:29.174Z,99.90
2023-08-22T20:43:57.478Z,99.90
2023-08-22T20:46:24.412Z,99.90
2023-08-22T20:48:52.461Z,99.90
2023-08-22T20:51:19.187Z,99.90
2023-08-22T20:53:45.980Z,99.90
2023-08-22T20:56:12.798Z,99.90
2023-08-22T20:58:39.642Z,99.90
2023-08-22T21:01:06.560Z,99.90
2023-08-22T21:03:33.577Z,99.90
2023-08-22T21:06:00.692Z,99.90
2023-08-22T21:08:30.451Z,99.90
2023-08-22T21:11:00.374Z,99.90
2023-08-22T21:13:29.986Z,99.90
2023-08-22T21:15:56.969Z,99.90
2023-08-22T21:18:24.102Z,99.90
2023-08-22T21:20:54.880Z,99.90
2023-08-22T21:23:22.788Z,99.90
2023-08-22T21:25:49.970Z,99.90
2023-08-22T21:28:17.000Z,99.90
2023-08-22T21:30:52.162Z,99.90
2023-08-22T21:33:19.682Z,99.90
2023-08-22T21:35:46.909Z,99.90
2023-08-22T21:38:14.163Z,99.90
2023-08-22T21:40:47.996Z,99.90
2023-08-22T21:43:15.333Z,99.90
2023-08-22T21:45:42.845Z,99.90
2023-08-22T21:48:16.076Z,99.90
2023-08-22T21:50:46.055Z,99.90
2023-08-22T21:53:13.168Z,99.90
2023-08-22T21:55:43.576Z,99.90
2023-08-22T21:58:15.341Z,99.90
2023-08-22T22:01:03.057Z,99.90
2023-08-22T22:03:34.961Z,99.90
2023-08-22T22:06:03.173Z,99.90
2023-08-22T22:08:30.584Z,99.90
2023-08-22T22:10:58.191Z,99.90
2023-08-22T22:13:25.747Z,99.90
2023-08-22T22:15:55.558Z,99.90
2023-08-22T22:18:24.834Z,99.90
2023-08-22T22:20:59.388Z,99.90
2023-08-22T22:23:27.575Z,99.90
2023-08-22T22:26:09.162Z,99.90
2023-08-22T22:28:40.976Z,99.90
2023-08-22T22:31:09.803Z,99.90
2023-08-22T22:33:37.598Z,99.90
2023-08-22T22:36:05.485Z,99.90
2023-08-22T22:38:32.672Z,99.90
2023-08-22T22:41:04.022Z,99.90
2023-08-22T22:43:31.251Z,99.90
2023-08-22T22:45:59.090Z,99.90
2023-08-22T22:48:26.124Z,99.90
2023-08-22T22:50:53.247Z,99.90
2023-08-22T22:53:20.388Z,99.90
2023-08-22T22:55:47.352Z,99.90
2023-08-22T22:58:14.913Z,99.90
2023-08-22T23:00:42.048Z,99.90
2023-08-22T23:03:09.461Z,99.90
2023-08-22T23:05:39.379Z,99.90
2023-08-22T23:08:07.247Z,99.90
2023-08-22T23:10:34.358Z,99.90
2023-08-22T23:13:02.089Z,99.90
2023-08-22T23:15:28.986Z,99.90
2023-08-22T23:17:56.556Z,99.90
2023-08-22T23:20:23.657Z,99.90
2023-08-22T23:22:51.207Z,99.90
2023-08-22T23:25:18.437Z,99.90
2023-08-22T23:27:45.980Z,99.90
2023-08-22T23:30:15.842Z,99.90
2023-08-22T23:32:42.781Z,99.90
2023-08-22T23:35:09.877Z,99.90
2023-08-22T23:37:36.983Z,99.90
2023-08-22T23:40:20.746Z,99.90
2023-08-22T23:42:48.589Z,99.90
2023-08-22T23:45:15.701Z,99.90
2023-08-22T23:47:42.754Z,99.90
2023-08-22T23:50:10.078Z,99.90
2023-08-22T23:52:38.337Z,99.90
2023-08-22T23:55:06.562Z,99.90
2023-08-22T23:57:35.993Z,99.90
